Time;durP1;ratioP1;P1;durP2;ratioP2;P2;SDS_P1;SDS_P2;PMS_P1;PMS_P2;Temp;Humidity;BMP_temperature;BMP_pressure;BME280_temperature;BME280_humidity;BME280_pressure;Samples;Min_cycle;Max_cycle;Signal;HPM_P1;HPM_P2
2023/05/23 08:57:10;;;;;;;9.77;3.92;;;;;;;13.24;100.00;102052.53;5151007;27;20399;-71
2023/05/23 08:59:37;;;;;;;13.65;5.38;;;;;;;13.22;100.00;102050.03;5141296;27;20035;-69
2023/05/23 09:02:09;;;;;;;11.30;4.68;;;;;;;13.33;100.00;102048.56;5115064;28;20398;-73
2023/05/23 09:04:35;;;;;;;10.75;5.13;;;;;;;13.29;100.00;102056.28;5084081;28;20028;-68
2023/05/23 09:07:01;;;;;;;14.23;5.47;;;;;;;13.16;100.00;102056.31;5089305;28;20116;-70
2023/05/23 09:09:26;;;;;;;10.80;4.75;;;;;;;13.19;100.00;102053.16;5086847;28;20028;-71
2023/05/23 09:11:54;;;;;;;11.75;4.97;;;;;;;13.23;100.00;102067.19;5088183;28;20066;-71
2023/05/23 09:14:19;;;;;;;14.57;5.43;;;;;;;13.28;100.00;102062.75;5089402;28;20029;-72
2023/05/23 09:16:50;;;;;;;14.35;5.38;;;;;;;13.40;100.00;102064.88;5089294;28;20020;-72
2023/05/23 09:19:17;;;;;;;11.32;4.82;;;;;;;13.45;100.00;102065.03;5088549;28;20031;-72
2023/05/23 09:21:44;;;;;;;14.30;4.88;;;;;;;13.47;100.00;102065.69;5089239;28;20484;-71
2023/05/23 09:24:10;;;;;;;12.77;4.75;;;;;;;13.46;100.00;102066.72;5088316;28;20080;-68
2023/05/23 09:26:36;;;;;;;15.52;4.47;;;;;;;13.46;100.00;102072.97;5087773;28;20502;-73
2023/05/23 09:29:04;;;;;;;11.55;4.43;;;;;;;13.46;100.00;102077.59;5087999;28;20040;-73
2023/05/23 09:31:30;;;;;;;11.63;3.95;;;;;;;13.47;100.00;102076.56;5070892;28;20035;-73
2023/05/23 09:33:57;;;;;;;12.23;4.07;;;;;;;13.61;100.00;102086.31;5088791;28;20036;-69
2023/05/23 09:36:22;;;;;;;12.30;3.85;;;;;;;13.67;98.84;102081.09;5088494;28;20032;-69
2023/05/23 09:38:48;;;;;;;12.23;4.03;;;;;;;13.63;93.90;102078.81;5088086;28;20039;-72
2023/05/23 09:41:13;;;;;;;14.23;3.53;;;;;;;13.63;91.74;102078.81;5087560;28;20028;-73
2023/05/23 09:43:39;;;;;;;17.08;3.92;;;;;;;13.71;92.17;102074.16;5088852;28;20024;-72
2023/05/23 09:46:11;;;;;;;19.63;4.15;;;;;;;13.71;89.70;102090.47;5088554;28;20039;-70
2023/05/23 09:48:37;;;;;;;13.00;3.97;;;;;;;13.74;85.40;102081.88;5087610;28;20302;-70
2023/05/23 09:51:04;;;;;;;16.05;4.18;;;;;;;13.87;86.79;102076.38;5083905;28;20455;-73
2023/05/23 09:53:30;;;;;;;16.45;4.00;;;;;;;13.87;80.00;102075.56;5088614;28;20535;-72
2023/05/23 09:55:58;;;;;;;16.50;4.20;;;;;;;13.99;81.29;102082.81;5085061;28;20142;-71
2023/05/23 09:58:25;;;;;;;12.68;3.45;;;;;;;14.04;77.63;102078.59;5088449;28;20032;-72
2023/05/23 10:00:53;;;;;;;11.77;3.65;;;;;;;14.08;78.79;102082.56;5085502;28;20028;-69
2023/05/23 10:03:24;;;;;;;14.63;3.65;;;;;;;14.09;77.18;102082.34;5107582;28;20044;-72
2023/05/23 10:05:55;;;;;;;11.20;3.55;;;;;;;14.06;75.77;102076.50;5100724;28;20415;-69
2023/05/23 10:08:28;;;;;;;9.63;3.20;;;;;;;14.12;75.68;102081.06;5073422;28;20375;-67
2023/05/23 10:11:15;;;;;;;15.75;3.85;;;;;;;14.20;75.40;102086.25;5055221;28;20091;-73
2023/05/23 10:13:43;;;;;;;14.40;3.55;;;;;;;14.39;75.83;102081.72;5055144;28;20116;-70
2023/05/23 10:16:12;;;;;;;14.38;3.78;;;;;;;14.50;75.86;102082.91;5054858;28;20025;-70
2023/05/23 10:18:43;;;;;;;14.55;3.70;;;;;;;14.64;70.62;102073.59;5055976;28;20098;-70
2023/05/23 10:21:14;;;;;;;12.77;3.38;;;;;;;14.83;71.50;102070.94;5069917;28;20036;-69
2023/05/23 10:23:41;;;;;;;13.10;3.73;;;;;;;14.75;68.92;102088.41;5074125;28;20032;-69
2023/05/23 10:26:06;;;;;;;10.13;3.42;;;;;;;14.78;68.13;102078.94;5073132;28;20455;-69
2023/05/23 10:28:32;;;;;;;13.80;3.90;;;;;;;14.80;66.91;102083.09;5071810;28;20111;-71
2023/05/23 10:30:58;;;;;;;16.02;3.95;;;;;;;14.78;66.67;102087.97;5069717;28;20040;-72
2023/05/23 10:33:26;;;;;;;14.32;3.65;;;;;;;14.87;68.85;102089.34;5078814;28;20463;-69
2023/05/23 10:35:51;;;;;;;12.60;3.50;;;;;;;14.91;68.15;102097.91;5074886;28;20036;-72
2023/05/23 10:38:38;;;;;;;13.47;3.57;;;;;;;14.89;65.87;102092.66;5073179;28;20464;-72
2023/05/23 10:41:21;;;;;;;13.73;3.95;;;;;;;15.02;66.67;102091.72;5054499;28;20354;-69
2023/05/23 10:44:08;;;;;;;12.65;3.90;;;;;;;15.07;66.67;102086.41;5070781;28;20024;-72
2023/05/23 10:46:54;;;;;;;12.15;3.50;;;;;;;15.12;67.72;102091.19;5074185;28;20024;-72
2023/05/23 10:49:39;;;;;;;12.25;3.38;;;;;;;15.26;65.54;102091.88;5073535;28;20031;-71
2023/05/23 10:52:06;;;;;;;11.77;3.58;;;;;;;15.28;61.82;102083.47;5073970;28;20464;-73
2023/05/23 10:54:46;;;;;;;14.48;3.92;;;;;;;15.30;62.65;102084.94;5074333;28;20032;-71
2023/05/23 10:57:15;;;;;;;11.80;4.25;;;;;;;15.20;59.36;102088.19;5073068;28;20041;-74
2023/05/23 10:59:41;;;;;;;12.98;3.63;;;;;;;15.33;61.27;102106.28;5072051;28;20032;-73
2023/05/23 11:02:13;;;;;;;15.68;3.92;;;;;;;15.40;60.21;102093.41;5083412;28;20055;-71
2023/05/23 11:04:38;;;;;;;16.40;3.42;;;;;;;15.52;59.33;102087.19;5073841;28;20033;-72
2023/05/23 11:07:03;;;;;;;16.63;4.20;;;;;;;15.53;59.54;102092.41;5091163;28;20111;-73
2023/05/23 11:09:29;;;;;;;13.30;4.00;;;;;;;15.44;58.42;102087.50;5060703;28;20379;-72
2023/05/23 11:12:04;;;;;;;12.77;3.80;;;;;;;15.67;60.38;102082.22;5071046;28;20464;-70
2023/05/23 11:14:33;;;;;;;14.10;4.05;;;;;;;15.70;56.22;102087.19;5074006;28;20217;-75
2023/05/23 11:17:00;;;;;;;11.88;3.33;;;;;;;15.78;55.61;102077.91;5073967;28;20032;-71
2023/05/23 11:19:27;;;;;;;13.48;3.67;;;;;;;15.82;54.91;102078.25;5070711;28;20033;-73
2023/05/23 11:22:00;;;;;;;15.00;4.05;;;;;;;15.91;55.79;102076.88;5073988;28;20463;-73
2023/05/23 11:24:51;;;;;;;13.93;3.83;;;;;;;16.05;56.65;102085.75;5072664;28;20380;-73
2023/05/23 11:27:24;;;;;;;15.13;4.30;;;;;;;16.07;55.26;102087.16;5070605;28;20020;-70
2023/05/23 11:30:08;;;;;;;10.75;3.78;;;;;;;16.26;56.90;102087.09;5061128;28;20041;-74
2023/05/23 11:32:34;;;;;;;14.25;4.28;;;;;;;16.32;55.22;102088.91;5053802;28;20430;-72
2023/05/23 11:35:01;;;;;;;13.18;3.80;;;;;;;16.24;55.12;102087.31;5064425;28;20039;-71
2023/05/23 11:37:27;;;;;;;12.32;3.97;;;;;;;16.30;56.57;102082.81;5078984;28;20037;-70
2023/05/23 11:39:52;;;;;;;13.23;3.83;;;;;;;16.25;52.58;102096.38;5070917;28;20039;-71
2023/05/23 11:42:18;;;;;;;11.45;3.50;;;;;;;16.30;53.27;102093.75;5071134;28;20032;-73
2023/05/23 11:44:44;;;;;;;12.77;3.60;;;;;;;16.31;53.40;102089.97;5072896;28;20032;-72
2023/05/23 11:47:09;;;;;;;10.10;3.50;;;;;;;16.40;53.31;102096.75;5066560;28;20484;-76
2023/05/23 11:49:39;;;;;;;12.90;3.67;;;;;;;16.43;53.15;102090.00;5071968;28;20032;-75
2023/05/23 11:52:05;;;;;;;13.48;3.80;;;;;;;16.37;54.20;102080.84;5074538;28;20036;-74
2023/05/23 11:54:31;;;;;;;14.30;3.40;;;;;;;16.25;53.10;102097.19;5075290;28;20547;-73
2023/05/23 11:56:57;;;;;;;12.15;3.90;;;;;;;16.33;53.07;102096.03;5073727;28;20108;-75
2023/05/23 11:59:25;;;;;;;12.85;3.38;;;;;;;16.46;53.50;102101.28;5073028;28;20397;-72
2023/05/23 12:01:50;;;;;;;14.88;4.00;;;;;;;16.66;52.37;102097.41;5074044;28;20044;-74
2023/05/23 12:04:16;;;;;;;12.00;3.17;;;;;;;16.67;52.09;102090.88;5075009;28;20361;-76
2023/05/23 12:06:41;;;;;;;11.02;3.70;;;;;;;16.64;50.37;102096.81;5074785;28;20068;-74
2023/05/23 12:09:10;;;;;;;15.40;3.67;;;;;;;16.56;50.63;102095.25;5072783;28;20545;-75
2023/05/23 12:11:35;;;;;;;10.48;3.28;;;;;;;16.60;52.59;102098.34;5075093;28;20036;-75
2023/05/23 12:14:05;;;;;;;9.63;3.08;;;;;;;16.59;51.80;102103.00;5073480;28;20033;-77
2023/05/23 12:16:31;;;;;;;15.15;3.90;;;;;;;16.60;52.00;102096.44;5072861;28;20111;-74
2023/05/23 12:18:57;;;;;;;14.20;3.92;;;;;;;16.50;51.92;102090.75;5062802;28;20579;-74
2023/05/23 12:21:25;;;;;;;10.15;3.35;;;;;;;16.60;52.64;102123.75;5065109;28;20051;-76
2023/05/23 12:23:50;;;;;;;13.93;3.35;;;;;;;16.41;50.50;102109.38;5072031;28;20115;-76
2023/05/23 12:26:16;;;;;;;9.73;2.97;;;;;;;16.44;50.73;102099.84;5071624;28;20111;-74
2023/05/23 12:28:46;;;;;;;15.52;3.28;;;;;;;16.50;52.07;102103.53;5071076;28;20035;-76
2023/05/23 12:31:15;;;;;;;13.85;3.40;;;;;;;16.45;52.50;102099.59;5069296;28;20033;-75
2023/05/23 12:33:43;;;;;;;13.05;3.53;;;;;;;16.40;52.07;102123.25;5071884;28;20064;-73
2023/05/23 12:36:09;;;;;;;13.65;3.40;;;;;;;16.24;51.28;102114.63;5072061;28;20115;-75
2023/05/23 12:38:36;;;;;;;14.80;3.47;;;;;;;16.24;52.37;102119.28;5071223;28;20102;-74
2023/05/23 12:41:14;;;;;;;12.25;3.22;;;;;;;16.48;52.92;102114.72;5070625;28;20036;-78
2023/05/23 12:43:40;;;;;;;11.07;2.95;;;;;;;16.35;50.11;102126.69;5069633;28;20036;-76
2023/05/23 12:46:06;;;;;;;15.23;3.78;;;;;;;16.29;49.53;102125.72;5071388;28;20434;-74
2023/05/23 12:48:32;;;;;;;12.68;3.03;;;;;;;16.51;51.54;102133.38;5071904;28;20480;-72
2023/05/23 12:50:58;;;;;;;7.40;2.75;;;;;;;16.63;49.75;102133.41;5072605;28;20034;-72
2023/05/23 12:53:23;;;;;;;15.63;3.08;;;;;;;16.97;50.16;102122.81;5072029;28;20021;-72
2023/05/23 12:55:48;;;;;;;12.35;3.30;;;;;;;17.16;49.36;102112.56;5072286;28;20137;-71
2023/05/23 12:58:13;;;;;;;12.68;3.42;;;;;;;17.27;49.56;102121.81;5068473;28;20040;-73
2023/05/23 13:00:39;;;;;;;8.88;2.70;;;;;;;17.10;47.89;102132.66;5068381;28;20037;-73
2023/05/23 13:03:05;;;;;;;13.68;3.15;;;;;;;17.13;49.30;102122.06;5060359;28;20033;-73
2023/05/23 13:05:30;;;;;;;12.38;3.15;;;;;;;17.41;49.15;102123.25;5067211;28;20028;-74
2023/05/23 13:07:58;;;;;;;11.93;3.45;;;;;;;17.53;47.81;102126.78;5072300;28;20027;-73
2023/05/23 13:10:23;;;;;;;11.35;3.17;;;;;;;17.66;48.17;102125.72;5071550;28;20028;-72
2023/05/23 13:12:48;;;;;;;12.60;3.25;;;;;;;17.66;47.63;102130.34;5075255;28;20473;-75
2023/05/23 13:15:14;;;;;;;11.63;3.03;;;;;;;17.58;48.09;102130.72;5075849;28;20024;-72
2023/05/23 13:17:39;;;;;;;12.50;3.13;;;;;;;17.26;47.38;102133.84;5070885;28;20093;-70
2023/05/23 13:20:06;;;;;;;12.45;2.97;;;;;;;16.97;47.16;102133.75;5071107;28;20128;-71
2023/05/23 13:22:32;;;;;;;14.68;3.50;;;;;;;16.74;48.51;102124.41;5072014;28;20035;-71
2023/05/23 13:24:57;;;;;;;12.82;3.20;;;;;;;16.76;49.26;102119.53;5072210;28;20111;-71
2023/05/23 13:27:22;;;;;;;10.68;2.92;;;;;;;17.02;48.20;102122.91;5069736;28;20036;-76
2023/05/23 13:29:48;;;;;;;13.23;3.08;;;;;;;17.23;46.61;102116.00;5071004;28;20025;-74
2023/05/23 13:32:13;;;;;;;10.57;2.92;;;;;;;17.41;46.07;102105.97;5071832;28;20027;-71
2023/05/23 13:34:38;;;;;;;15.88;3.45;;;;;;;17.66;46.61;102102.97;5072163;28;20025;-74
2023/05/23 13:37:04;;;;;;;9.70;2.88;;;;;;;17.82;45.79;102109.59;5071162;28;20456;-72
2023/05/23 13:39:29;;;;;;;10.45;2.80;;;;;;;17.74;45.30;102116.28;5071897;28;20020;-74
2023/05/23 13:41:55;;;;;;;10.38;3.22;;;;;;;17.56;46.00;102110.97;5072269;28;20055;-73
2023/05/23 13:44:20;;;;;;;11.25;3.47;;;;;;;17.34;46.97;102117.06;5072011;28;20033;-72
2023/05/23 13:46:45;;;;;;;11.52;3.30;;;;;;;17.11;48.19;102116.00;5075650;28;20024;-77
2023/05/23 13:49:11;;;;;;;12.50;3.15;;;;;;;17.05;49.22;102116.13;5075882;28;20456;-76
2023/05/23 13:51:36;;;;;;;9.25;3.13;;;;;;;16.94;49.38;102115.03;5075767;28;20035;-74
2023/05/23 13:54:04;;;;;;;8.65;2.88;;;;;;;16.92;50.33;102117.19;5075732;28;20123;-73
2023/05/23 13:56:30;;;;;;;12.95;2.92;;;;;;;16.93;49.02;102116.94;5075002;28;20052;-77
2023/05/23 13:58:56;;;;;;;10.77;3.28;;;;;;;16.72;48.60;102118.31;5074286;28;20031;-77
2023/05/23 14:01:21;;;;;;;12.35;3.35;;;;;;;16.70;48.67;102109.53;5072801;28;20462;-72
2023/05/23 14:03:46;;;;;;;12.68;3.78;;;;;;;16.66;48.87;102111.88;5075607;28;20032;-75
2023/05/23 14:06:12;;;;;;;13.35;3.40;;;;;;;16.66;48.97;102117.34;5072261;28;20411;-73
2023/05/23 14:08:37;;;;;;;11.57;3.42;;;;;;;16.56;49.50;102124.47;5074143;28;20089;-72
2023/05/23 14:11:02;;;;;;;11.57;3.17;;;;;;;16.35;49.48;102115.75;5060376;28;20028;-72
2023/05/23 14:13:27;;;;;;;13.90;3.80;;;;;;;16.35;50.35;102113.03;5074338;28;20103;-74
2023/05/23 14:15:53;;;;;;;10.48;3.00;;;;;;;16.38;49.32;102117.16;5074043;28;20024;-74
2023/05/23 14:18:18;;;;;;;10.38;3.28;;;;;;;16.66;48.73;102119.28;5074808;28;20029;-74
2023/05/23 14:20:44;;;;;;;10.88;3.25;;;;;;;16.93;46.70;102111.47;5054824;28;20043;-73
2023/05/23 14:23:09;;;;;;;13.95;3.45;;;;;;;17.10;45.58;102111.59;5055938;28;20036;-73
2023/05/23 14:25:35;;;;;;;11.50;3.10;;;;;;;17.14;45.71;102103.78;5079046;28;20039;-72
2023/05/23 14:28:00;;;;;;;13.05;3.00;;;;;;;17.07;46.77;102111.25;5078691;28;20020;-73
2023/05/23 14:30:25;;;;;;;10.90;3.33;;;;;;;17.16;45.99;102115.28;5074591;28;20452;-72
2023/05/23 14:32:51;;;;;;;16.70;3.63;;;;;;;17.48;45.98;102118.50;5072485;28;20040;-72
2023/05/23 14:35:16;;;;;;;11.32;2.60;;;;;;;17.50;44.33;102120.97;5073006;28;20039;-71
2023/05/23 14:37:41;;;;;;;11.68;3.20;;;;;;;17.64;42.42;102119.63;5074633;28;20036;-70
2023/05/23 14:40:08;;;;;;;8.73;2.60;;;;;;;17.62;42.27;102127.25;5074376;28;20054;-72
2023/05/23 14:42:34;;;;;;;12.73;3.00;;;;;;;17.80;42.91;102115.31;5073374;28;20029;-72
2023/05/23 14:45:00;;;;;;;10.43;2.42;;;;;;;17.85;43.69;102109.94;5073620;28;20029;-72
2023/05/23 14:47:25;;;;;;;13.50;3.78;;;;;;;17.78;45.09;102128.41;5070805;28;20037;-72
2023/05/23 14:49:51;;;;;;;11.55;3.28;;;;;;;17.44;44.25;102122.78;5072474;28;20384;-71
2023/05/23 14:52:16;;;;;;;12.00;2.95;;;;;;;17.17;45.62;102119.69;5073960;28;20063;-70
2023/05/23 14:54:42;;;;;;;16.90;3.65;;;;;;;17.10;46.35;102111.59;5069406;28;20031;-71
2023/05/23 14:57:08;;;;;;;15.13;3.63;;;;;;;17.02;47.11;102114.69;5070375;28;20033;-70
2023/05/23 14:59:34;;;;;;;13.65;3.35;;;;;;;16.99;48.09;102115.19;5073354;28;20522;-72
2023/05/23 15:02:02;;;;;;;16.80;3.40;;;;;;;16.83;48.22;102109.31;5070473;28;20036;-74
2023/05/23 15:04:27;;;;;;;11.70;3.30;;;;;;;16.86;46.27;102113.47;5055659;28;20472;-71
2023/05/23 15:06:53;;;;;;;15.85;3.55;;;;;;;17.11;46.68;102107.81;5062654;28;20461;-71
2023/05/23 15:09:18;;;;;;;12.32;3.28;;;;;;;17.38;46.80;102107.31;5073902;28;20031;-70
2023/05/23 15:11:45;;;;;;;14.90;3.40;;;;;;;17.58;45.39;102108.84;5067692;28;20028;-71
2023/05/23 15:14:10;;;;;;;13.07;3.20;;;;;;;17.46;43.20;102120.63;5053323;28;20476;-71
2023/05/23 15:16:36;;;;;;;12.45;3.53;;;;;;;17.58;42.85;102101.44;5063567;28;20035;-71
2023/05/23 15:19:02;;;;;;;13.82;3.30;;;;;;;17.86;43.75;102103.38;5073561;28;20108;-71
2023/05/23 15:21:27;;;;;;;11.65;2.83;;;;;;;17.72;43.84;102110.22;5068222;28;20029;-70
2023/05/23 15:23:53;;;;;;;11.18;3.22;;;;;;;17.62;44.49;102110.84;5072141;28;20361;-70
2023/05/23 15:26:18;;;;;;;13.52;2.95;;;;;;;17.42;45.06;102116.72;5072908;28;20040;-71
2023/05/23 15:28:44;;;;;;;10.98;3.38;;;;;;;17.28;45.08;102123.50;5073110;28;20051;-71
2023/05/23 15:31:09;;;;;;;12.88;3.35;;;;;;;17.06;45.17;102106.84;5073352;28;20073;-70
2023/05/23 15:33:34;;;;;;;12.32;3.03;;;;;;;16.92;46.50;102114.44;5072908;28;20411;-71
2023/05/23 15:36:00;;;;;;;15.05;3.35;;;;;;;16.84;47.27;102110.97;5072743;28;20082;-70
2023/05/23 15:38:25;;;;;;;12.40;3.25;;;;;;;17.29;46.04;102106.03;5067832;28;20032;-70
2023/05/23 15:40:53;;;;;;;14.40;3.60;;;;;;;17.83;44.76;102113.97;5053382;28;20412;-70
2023/05/23 15:43:18;;;;;;;12.30;2.70;;;;;;;17.93;43.98;102113.41;5084244;28;20099;-70
2023/05/23 15:45:44;;;;;;;10.77;3.22;;;;;;;17.64;43.90;102124.28;5072740;28;20036;-70
2023/05/23 15:48:09;;;;;;;10.95;3.70;;;;;;;17.28;44.05;102118.03;5072802;28;20158;-70
2023/05/23 15:50:35;;;;;;;12.30;3.17;;;;;;;17.06;44.94;102123.25;5072635;28;20039;-70
2023/05/23 15:53:00;;;;;;;9.32;2.70;;;;;;;16.89;45.83;102120.41;5070759;28;20056;-71
2023/05/23 15:55:25;;;;;;;10.90;3.00;;;;;;;16.69;46.55;102113.31;5066575;28;20060;-71
2023/05/23 15:57:51;;;;;;;15.65;3.88;;;;;;;16.54;46.91;102121.16;5052993;28;20047;-71
2023/05/23 16:00:16;;;;;;;12.38;3.20;;;;;;;16.54;46.35;102123.88;5057458;28;20036;-71
2023/05/23 16:02:42;;;;;;;15.88;3.42;;;;;;;16.43;46.94;102126.34;5070367;28;20078;-69
2023/05/23 16:05:07;;;;;;;13.63;3.50;;;;;;;16.22;47.29;102132.34;5072250;28;20025;-69
2023/05/23 16:07:32;;;;;;;15.00;3.28;;;;;;;16.15;47.73;102124.22;5072743;28;20106;-69
